Airfield :
LOGIN :

Register | Disclaimer

   EN    FR    IT 

 










Legend :    VFR   Marginal VFR   IFR   Intensive IFR   Very Intensive IFR
Visi :
Ceiling :
>= 8 km
>= 3000ft
5 to 8 km
1000 to 3000 ft
1500m to 5 km
500 to 1000 ft
800 to 1500m
200 to 500 ft
< 800m
< 200 ft
Symbols :   Thunderstorms  Fog  Heavy snow  Heavy precipitations  Wind > 20 kt
SIGMETs :     Misc.  Thunderstorms  Icing  Turbulence  Mountain Waves  Volcanic Ashes







- Airport Elevation : 32 ft
- IATA code : LKZ


EGUL - RAF Lakenheath

CURRENT METAR :
  • 250856Z AUTO 36011KT 9999 +RA BKN006 18/17 A3002 RMK AO2 RAB50 SLP169 P0002 60011 T01770174 $

EXPIRED METARs :
  • 250850Z AUTO 36009KT 9999 -RA BKN006 BKN055 18/17 A3002 RMK AO2 RAB50 SLP169 $
  • 250756Z AUTO 02007KT 8000 BR BKN006 18/18 A3003 RMK AO2 RAE09DZB09E14DZB16E25 BKN V SCT SLP172 P0001 T01800180 $
  • 250752Z 02008KT 9000 BR BKN006 18/18 A3002 RMK RAE09DZB09E14DZB16E25 BKN V SCT SLP169 $
  • 250725Z AUTO 05007KT 9000 BR FEW005 18/18 A3002 RMK AO2 RAE09DZB09E14DZB16E25 SLP169 $
  • 250718Z AUTO 05008KT 9000 -DZ FEW005 18/18 A3002 RMK AO2 RAE09DZB09E14DZB16 SLP169 $
  • 250711Z AUTO 06006KT 8000 -DZ BR FEW005 18/18 A3002 RMK AO2 RAE09DZB09 PRESRR SLP169 $
  • 250656Z AUTO 06010KT 3600 -RA BR FEW006 18/18 A3000 RMK AO2 SLP162 P0008 T01760176 $
  • 250635Z AUTO 06009KT 3600 -RA BR SCT003 18/18 A3002 RMK AO2 SLP169 $

TAF AMD TAF EGUL
Valid from the 25 at 08:00 until the 26 at 10:00 UTC


250814Z 2508/2610 02009KT 9999 BKN050 QNH3000INS
TEMPO 2508/2511 03010G15KT 6000 -RA OVC005
BECMG 2512/2513 35010G15KT 9999 OVC013 QNH3005INS
TEMPO 2513/2516 OVC015
BECMG 2515/2516 35009KT 9999 OVC010 QNH3010INS
BECMG 2602/2603 VRB06KT 9999 OVC008 QNH3015INS TX22/2511Z TN11/2603Z
No reported NOTAMs for that airfield.
2 SIGMETs reported for the London FIR (EGTT) :
 
Embedded thunderstorms
EGTT SIGMET 03 VALID 250900/251300 EGRR
EGTT LONDON FIR EMBD TS FCST WI N5227 E00059 - N5253 W00041 - N5455 W00022 - N5446 E00155 - N5408 E00336 - N5227 E00059 TOP FL350 MOV NNE 20KT WKN=
Embedded thunderstorms
EGTT SIGMET 02 VALID 250500/250900 EGRR
EGTT LONDON FIR EMBD TS FCST WI N5130 E00200 - N5107 E00200 - N5100 E00128 - N5045 E00033 - N5130 W00054 - N5312 W00009 - N5245 E00303 - N5130 E00200 TOP FL360 MOV NNE 20KT WKN=



MET'MAP, your aeronautical weather chart ! - Copyright ORBIFLY December 2007 - Disclaimer

ORBIFLY MET'MAP TEAM :

Programming & Development : Alexandra Zaïnal
Concept & Development : Baudouin d'Aumeries
Co-Development & Prog : Marc-Olivier Méhu
Technical & hardware support : Manuel Goepfert

Contact : metmap@orbifly.com




SOURCES & CREDITS :

   NOAA